Historyczne dane pomiarowe

Dodano dane terminowe – wersja testowa.

Dane z okresu 1951-2019

Wersja bazy: 1.34 [2019-03-16, lista zmian], aktualizacja planowana na 2019-04-15

Dane meteo z obszaru Polski uzyskane na podstawie danych udostępnionych przez Instytut Meteorologii i Gospodarki Wodnej – Państwowy Instytut Badawczy.

 

Wybierz Datę:    

       

TemperaturaWilgotnośćWiatrCiśnienieOpadyŚniegCzas trwania zjawisk
 Stacja t tx tn tng RH VA  wxwx mslp ppp RRR   cm mm wxwxwxwxwxwxwx
1967-12-13 -7.6 -6.9 -9.4--- 8.0 1.0---- 0.4-- 9---------
1967-12-14 -7.7 -5.0-12.6--- 5.7 1.0---- 0.6-- 9---------
1967-12-15 -4.2 -3.2 -9.3--- 8.0 3.7---- 0.0-- 8---------
1967-12-16 -3.7 -2.8 -4.5--- 8.0 7.0---- 0.7-- 7---------
1967-12-17 -1.8 1.2 -4.5--- 7.3 5.0---- 1.9-- 8---------
1967-12-18 -2.0 -0.9 -3.5--- 8.0 5.0---- 2.2-- 10---------
1967-12-19 -4.2 -1.9-10.1--- 6.7 4.7---- 3.2-- 15---------
1967-12-20 -9.0 -1.9-11.2--- 6.0 8.0---- 3.5-- 16---------
1967-12-21 -6.2 -5.3-16.5--- 7.3 3.3---- 1.6-- 18---------
1967-12-22 -5.9 -5.4 -7.1--- 8.0 4.3---- 8.1-- 19---------
1967-12-23 0.2 2.7 -6.0--- 7.7 5.0---- 5.4-- 22---------
1967-12-24 4.6 6.3 2.0--- 7.3 2.0---- 0.7-- 10---------
1967-12-25 3.3 5.7 1.8--- 7.3 1.7---- 5.0-- 8---------
1967-12-26 2.8 5.3 0.5--- 4.3 0.7---- 1.6------------
1967-12-27 -2.2 2.6 -5.6--- 5.3 4.0---- 0.2------------
1967-12-28 -7.8 -0.6-11.4--- 0.0 1.3---- 0.0------------
1967-12-29 -2.3 2.9-10.2--- 2.7 1.3---- 0.0------------
1967-12-30 -0.7 0.2 -2.0--- 8.0 1.3---- 2.8------------
1967-12-31 -1.0 1.5 -2.2--- 5.0 3.0---- 0.0-- 10---------
1968-01-01 -1.0 0.4 -5.3--- 6.7 4.0---- 3.5-- 9---------
1968-01-02 -5.9 -0.2-10.6--- 7.0 1.3---- 0.0-- 12---------
1968-01-03 -4.8 -2.7-13.4--- 8.0 2.0---- 0.5-- 12---------
1968-01-04 -5.9 -2.6 -9.7--- 4.3 1.7---- 0.8-- 12---------
1968-01-05 -7.0 -3.5-16.0--- 8.0 1.0---- 2.8-- 14---------
1968-01-06 -3.5 -1.2 -6.5--- 6.0 3.7---- 6.3-- 18---------
1968-01-07 -6.9 -2.4 -8.1--- 8.0 2.3---- 0.6-- 25---------
1968-01-08-15.8 -8.3-20.5--- 5.0 0.7---- 0.5-- 27---------
1968-01-09-13.4-11.2-22.7--- 7.3 0.3---- 0.4-- 28---------
1968-01-10-18.2-10.5-22.5--- 4.7 1.0---- 0.0-- 28---------
1968-01-11-15.2-10.3-30.0--- 3.3 4.7---- 0.0-- 28---------
2034.0 ms

 

Źródłem pochodzenia danych jest Instytut Meteorologii i Gospodarki Wodnej – Państwowy Instytut Badawczy. Dane Instytutu Meteorologii i Gospodarki Wodnej – Państwowego Instytutu Badawczego zostały przetworzone.

Dane źródłowe można odnaleźć na stronie https://dane.imgw.pl